sensor_id;sensor_type;location;lat;lon;timestamp;temperature;humidity
21214;DHT22;10764;50.850;2.904;2022-11-20T00:00:49;18.80;53.40
21214;DHT22;10764;50.850;2.904;2022-11-20T00:03:16;20.80;54.10
21214;DHT22;10764;50.850;2.904;2022-11-20T00:05:44;19.90;52.80
21214;DHT22;10764;50.850;2.904;2022-11-20T00:08:11;19.80;53.30
21214;DHT22;10764;50.850;2.904;2022-11-20T00:10:39;20.50;52.60
21214;DHT22;10764;50.850;2.904;2022-11-20T00:13:06;20.20;52.80
21214;DHT22;10764;50.850;2.904;2022-11-20T00:15:34;20.00;52.30
21214;DHT22;10764;50.850;2.904;2022-11-20T00:18:00;20.80;54.30
21214;DHT22;10764;50.850;2.904;2022-11-20T00:20:27;18.70;53.50
21214;DHT22;10764;50.850;2.904;2022-11-20T00:22:54;20.90;54.30
21214;DHT22;10764;50.850;2.904;2022-11-20T00:25:21;20.00;52.60
21214;DHT22;10764;50.850;2.904;2022-11-20T00:27:47;18.70;53.30
21214;DHT22;10764;50.850;2.904;2022-11-20T00:30:14;19.80;53.70
21214;DHT22;10764;50.850;2.904;2022-11-20T00:32:41;18.80;53.10
21214;DHT22;10764;50.850;2.904;2022-11-20T00:35:08;18.70;53.10
21214;DHT22;10764;50.850;2.904;2022-11-20T00:37:35;20.80;54.30
21214;DHT22;10764;50.850;2.904;2022-11-20T00:40:02;18.90;51.90
21214;DHT22;10764;50.850;2.904;2022-11-20T00:42:28;18.70;53.40
21214;DHT22;10764;50.850;2.904;2022-11-20T00:44:55;21.60;53.70
21214;DHT22;10764;50.850;2.904;2022-11-20T00:47:22;18.60;52.80
21214;DHT22;10764;50.850;2.904;2022-11-20T00:49:48;21.20;53.40
21214;DHT22;10764;50.850;2.904;2022-11-20T00:52:15;21.40;54.10
21214;DHT22;10764;50.850;2.904;2022-11-20T00:54:42;20.80;54.50
21214;DHT22;10764;50.850;2.904;2022-11-20T00:57:09;18.40;53.50
21214;DHT22;10764;50.850;2.904;2022-11-20T00:59:36;18.30;53.30
21214;DHT22;10764;50.850;2.904;2022-11-20T01:02:02;20.00;53.10
21214;DHT22;10764;50.850;2.904;2022-11-20T01:04:29;21.20;53.60
21214;DHT22;10764;50.850;2.904;2022-11-20T01:06:56;18.60;52.90
21214;DHT22;10764;50.850;2.904;2022-11-20T01:09:23;20.00;54.20
21214;DHT22;10764;50.850;2.904;2022-11-20T01:11:50;18.30;53.20
21214;DHT22;10764;50.850;2.904;2022-11-20T01:14:19;21.40;53.70
21214;DHT22;10764;50.850;2.904;2022-11-20T01:16:48;18.80;52.10
21214;DHT22;10764;50.850;2.904;2022-11-20T01:19:21;18.70;52.30
21214;DHT22;10764;50.850;2.904;2022-11-20T01:21:52;20.20;53.00
21214;DHT22;10764;50.850;2.904;2022-11-20T01:24:20;20.80;52.70
21214;DHT22;10764;50.850;2.904;2022-11-20T01:26:49;21.00;53.10
21214;DHT22;10764;50.850;2.904;2022-11-20T01:29:20;19.90;52.70
21214;DHT22;10764;50.850;2.904;2022-11-20T01:31:48;18.70;52.20
21214;DHT22;10764;50.850;2.904;2022-11-20T01:34:17;19.70;52.90
21214;DHT22;10764;50.850;2.904;2022-11-20T01:36:45;21.10;53.40
21214;DHT22;10764;50.850;2.904;2022-11-20T01:39:15;18.60;51.00
21214;DHT22;10764;50.850;2.904;2022-11-20T01:41:43;18.20;51.90
21214;DHT22;10764;50.850;2.904;2022-11-20T01:44:58;18.30;51.90
21214;DHT22;10764;50.850;2.904;2022-11-20T01:52:51;18.80;51.80
21214;DHT22;10764;50.850;2.904;2022-11-20T01:55:25;18.70;51.80
21214;DHT22;10764;50.850;2.904;2022-11-20T01:57:55;18.60;51.80
21214;DHT22;10764;50.850;2.904;2022-11-20T02:00:22;20.50;53.00
21214;DHT22;10764;50.850;2.904;2022-11-20T02:03:02;19.10;53.60
21214;DHT22;10764;50.850;2.904;2022-11-20T02:05:57;20.40;52.70
21214;DHT22;10764;50.850;2.904;2022-11-20T02:08:25;18.60;51.80
21214;DHT22;10764;50.850;2.904;2022-11-20T02:10:52;19.90;54.00
21214;DHT22;10764;50.850;2.904;2022-11-20T02:13:19;20.20;54.40
21214;DHT22;10764;50.850;2.904;2022-11-20T02:16:08;20.00;53.00
21214;DHT22;10764;50.850;2.904;2022-11-20T02:18:35;18.70;52.40
21214;DHT22;10764;50.850;2.904;2022-11-20T02:21:13;18.50;52.70
21214;DHT22;10764;50.850;2.904;2022-11-20T02:26:24;18.70;53.40
21214;DHT22;10764;50.850;2.904;2022-11-20T02:28:52;20.70;53.40
21214;DHT22;10764;50.850;2.904;2022-11-20T02:31:20;20.30;52.70
21214;DHT22;10764;50.850;2.904;2022-11-20T02:33:47;20.90;53.60
21214;DHT22;10764;50.850;2.904;2022-11-20T02:36:15;20.10;52.90
21214;DHT22;10764;50.850;2.904;2022-11-20T02:38:43;20.40;52.70
21214;DHT22;10764;50.850;2.904;2022-11-20T02:41:10;19.00;53.40
21214;DHT22;10764;50.850;2.904;2022-11-20T02:43:36;18.60;53.50
21214;DHT22;10764;50.850;2.904;2022-11-20T02:46:06;18.20;53.20
21214;DHT22;10764;50.850;2.904;2022-11-20T02:48:33;18.60;52.30
21214;DHT22;10764;50.850;2.904;2022-11-20T02:51:00;21.80;54.50
21214;DHT22;10764;50.850;2.904;2022-11-20T02:53:27;22.10;55.00
21214;DHT22;10764;50.850;2.904;2022-11-20T02:55:54;18.40;53.40
21214;DHT22;10764;50.850;2.904;2022-11-20T02:58:21;18.20;53.20
21214;DHT22;10764;50.850;2.904;2022-11-20T03:00:49;18.60;53.20
21214;DHT22;10764;50.850;2.904;2022-11-20T03:03:16;18.70;52.80
21214;DHT22;10764;50.850;2.904;2022-11-20T03:05:43;19.90;52.80
21214;DHT22;10764;50.850;2.904;2022-11-20T03:08:10;19.30;52.50
21214;DHT22;10764;50.850;2.904;2022-11-20T03:10:36;18.50;52.10
21214;DHT22;10764;50.850;2.904;2022-11-20T03:13:03;21.70;53.90
21214;DHT22;10764;50.850;2.904;2022-11-20T03:15:30;20.20;54.40
21214;DHT22;10764;50.850;2.904;2022-11-20T03:17:57;19.90;53.90
21214;DHT22;10764;50.850;2.904;2022-11-20T03:20:24;18.80;53.60
21214;DHT22;10764;50.850;2.904;2022-11-20T03:22:53;18.60;53.40
21214;DHT22;10764;50.850;2.904;2022-11-20T03:25:21;18.90;51.90
21214;DHT22;10764;50.850;2.904;2022-11-20T03:27:48;19.00;52.30
21214;DHT22;10764;50.850;2.904;2022-11-20T03:30:15;18.60;51.20
21214;DHT22;10764;50.850;2.904;2022-11-20T03:32:42;19.70;54.10
21214;DHT22;10764;50.850;2.904;2022-11-20T03:35:09;18.10;53.10
21214;DHT22;10764;50.850;2.904;2022-11-20T03:37:36;20.40;53.50
21214;DHT22;10764;50.850;2.904;2022-11-20T03:40:03;21.90;54.50
21214;DHT22;10764;50.850;2.904;2022-11-20T03:42:30;18.60;52.20
21214;DHT22;10764;50.850;2.904;2022-11-20T03:45:21;19.70;53.00
21214;DHT22;10764;50.850;2.904;2022-11-20T03:47:48;18.60;51.10
21214;DHT22;10764;50.850;2.904;2022-11-20T03:50:14;18.60;52.90
21214;DHT22;10764;50.850;2.904;2022-11-20T03:52:42;18.60;53.40
21214;DHT22;10764;50.850;2.904;2022-11-20T03:55:09;18.50;53.20
21214;DHT22;10764;50.850;2.904;2022-11-20T03:57:35;16.50;50.90
21214;DHT22;10764;50.850;2.904;2022-11-20T04:00:04;18.00;51.80
21214;DHT22;10764;50.850;2.904;2022-11-20T04:02:31;18.60;52.20
21214;DHT22;10764;50.850;2.904;2022-11-20T04:04:58;18.60;53.60
21214;DHT22;10764;50.850;2.904;2022-11-20T04:07:25;18.40;51.10
21214;DHT22;10764;50.850;2.904;2022-11-20T04:09:52;19.60;53.20
21214;DHT22;10764;50.850;2.904;2022-11-20T04:12:19;18.60;53.60
21214;DHT22;10764;50.850;2.904;2022-11-20T04:14:46;15.40;49.50
21214;DHT22;10764;50.850;2.904;2022-11-20T04:17:12;18.00;52.40
21214;DHT22;10764;50.850;2.904;2022-11-20T04:19:39;19.00;52.40
21214;DHT22;10764;50.850;2.904;2022-11-20T04:22:06;21.60;53.60
21214;DHT22;10764;50.850;2.904;2022-11-20T04:24:33;18.80;52.10
21214;DHT22;10764;50.850;2.904;2022-11-20T04:27:00;20.00;53.10
21214;DHT22;10764;50.850;2.904;2022-11-20T04:29:26;21.80;53.90
21214;DHT22;10764;50.850;2.904;2022-11-20T04:31:53;21.30;53.90
21214;DHT22;10764;50.850;2.904;2022-11-20T04:34:20;18.60;52.40
21214;DHT22;10764;50.850;2.904;2022-11-20T04:36:47;20.40;53.30
21214;DHT22;10764;50.850;2.904;2022-11-20T04:39:14;20.20;54.70
21214;DHT22;10764;50.850;2.904;2022-11-20T04:41:42;21.10;53.50
21214;DHT22;10764;50.850;2.904;2022-11-20T04:44:09;18.50;52.60
21214;DHT22;10764;50.850;2.904;2022-11-20T04:46:39;20.40;53.00
21214;DHT22;10764;50.850;2.904;2022-11-20T04:49:07;18.60;51.40
21214;DHT22;10764;50.850;2.904;2022-11-20T04:51:35;20.60;53.00
21214;DHT22;10764;50.850;2.904;2022-11-20T04:54:01;18.40;53.60
21214;DHT22;10764;50.850;2.904;2022-11-20T04:56:28;18.60;53.90
21214;DHT22;10764;50.850;2.904;2022-11-20T04:58:55;19.10;53.60
21214;DHT22;10764;50.850;2.904;2022-11-20T05:01:23;21.60;54.10
21214;DHT22;10764;50.850;2.904;2022-11-20T05:03:51;18.10;52.10
21214;DHT22;10764;50.850;2.904;2022-11-20T05:06:21;20.30;54.60
21214;DHT22;10764;50.850;2.904;2022-11-20T05:08:48;18.60;52.30
21214;DHT22;10764;50.850;2.904;2022-11-20T05:11:18;19.20;53.90
21214;DHT22;10764;50.850;2.904;2022-11-20T05:13:46;21.30;53.60
21214;DHT22;10764;50.850;2.904;2022-11-20T05:16:19;21.50;54.80
21214;DHT22;10764;50.850;2.904;2022-11-20T05:18:46;19.80;53.30
21214;DHT22;10764;50.850;2.904;2022-11-20T05:21:14;21.80;54.40
21214;DHT22;10764;50.850;2.904;2022-11-20T05:23:42;19.90;53.30
21214;DHT22;10764;50.850;2.904;2022-11-20T05:26:17;20.10;53.40
21214;DHT22;10764;50.850;2.904;2022-11-20T05:28:44;18.60;52.30
21214;DHT22;10764;50.850;2.904;2022-11-20T05:31:14;19.70;53.70
21214;DHT22;10764;50.850;2.904;2022-11-20T05:33:42;20.80;53.40
21214;DHT22;10764;50.850;2.904;2022-11-20T05:36:10;18.60;52.30
21214;DHT22;10764;50.850;2.904;2022-11-20T05:38:37;19.00;52.50
21214;DHT22;10764;50.850;2.904;2022-11-20T05:41:18;18.60;52.80
21214;DHT22;10764;50.850;2.904;2022-11-20T05:43:47;18.60;52.40
21214;DHT22;10764;50.850;2.904;2022-11-20T05:46:16;20.20;53.10
21214;DHT22;10764;50.850;2.904;2022-11-20T05:48:44;20.30;53.80
21214;DHT22;10764;50.850;2.904;2022-11-20T05:51:14;21.30;53.60
21214;DHT22;10764;50.850;2.904;2022-11-20T05:53:41;20.70;53.30
21214;DHT22;10764;50.850;2.904;2022-11-20T05:56:16;18.80;53.40
21214;DHT22;10764;50.850;2.904;2022-11-20T05:58:45;18.60;52.80
21214;DHT22;10764;50.850;2.904;2022-11-20T06:01:17;21.60;53.90
21214;DHT22;10764;50.850;2.904;2022-11-20T06:03:45;18.60;52.40
21214;DHT22;10764;50.850;2.904;2022-11-20T06:06:14;20.00;53.50
21214;DHT22;10764;50.850;2.904;2022-11-20T06:08:42;19.30;54.40
21214;DHT22;10764;50.850;2.904;2022-11-20T06:11:10;20.00;54.80
21214;DHT22;10764;50.850;2.904;2022-11-20T06:13:38;20.10;53.70
21214;DHT22;10764;50.850;2.904;2022-11-20T06:16:08;18.60;52.40
21214;DHT22;10764;50.850;2.904;2022-11-20T06:18:35;19.40;53.20
21214;DHT22;10764;50.850;2.904;2022-11-20T06:21:14;19.70;54.60
21214;DHT22;10764;50.850;2.904;2022-11-20T06:23:42;18.50;52.30
21214;DHT22;10764;50.850;2.904;2022-11-20T06:26:11;18.30;52.70
21214;DHT22;10764;50.850;2.904;2022-11-20T06:28:39;19.60;53.20
21214;DHT22;10764;50.850;2.904;2022-11-20T06:31:07;18.70;53.90
21214;DHT22;10764;50.850;2.904;2022-11-20T06:33:34;20.10;53.80
21214;DHT22;10764;50.850;2.904;2022-11-20T06:36:01;19.10;54.20
21214;DHT22;10764;50.850;2.904;2022-11-20T06:38:34;18.80;54.00
21214;DHT22;10764;50.850;2.904;2022-11-20T06:41:01;18.30;52.70
21214;DHT22;10764;50.850;2.904;2022-11-20T06:43:29;18.80;52.50
21214;DHT22;10764;50.850;2.904;2022-11-20T06:45:57;20.70;53.90
21214;DHT22;10764;50.850;2.904;2022-11-20T06:48:26;18.50;51.80
21214;DHT22;10764;50.850;2.904;2022-11-20T06:50:53;18.20;52.70
21214;DHT22;10764;50.850;2.904;2022-11-20T06:53:21;20.20;54.60
21214;DHT22;10764;50.850;2.904;2022-11-20T06:55:50;18.50;52.80
21214;DHT22;10764;50.850;2.904;2022-11-20T06:58:18;19.90;53.50
21214;DHT22;10764;50.850;2.904;2022-11-20T07:00:45;21.10;55.40
21214;DHT22;10764;50.850;2.904;2022-11-20T07:03:12;21.00;55.50
21214;DHT22;10764;50.850;2.904;2022-11-20T07:05:39;19.50;54.50
21214;DHT22;10764;50.850;2.904;2022-11-20T07:08:07;19.60;53.40
21214;DHT22;10764;50.850;2.904;2022-11-20T07:10:34;18.00;52.60
21214;DHT22;10764;50.850;2.904;2022-11-20T07:13:01;20.00;53.70
21214;DHT22;10764;50.850;2.904;2022-11-20T07:15:29;18.60;54.30
21214;DHT22;10764;50.850;2.904;2022-11-20T07:17:59;20.10;53.70
21214;DHT22;10764;50.850;2.904;2022-11-20T07:20:26;19.00;53.20
21214;DHT22;10764;50.850;2.904;2022-11-20T07:22:56;18.70;54.20
21214;DHT22;10764;50.850;2.904;2022-11-20T07:25:27;19.90;53.70
21214;DHT22;10764;50.850;2.904;2022-11-20T07:27:58;18.60;53.50
21214;DHT22;10764;50.850;2.904;2022-11-20T07:30:28;22.70;55.80
21214;DHT22;10764;50.850;2.904;2022-11-20T07:32:56;18.70;52.60
21214;DHT22;10764;50.850;2.904;2022-11-20T07:35:24;19.00;53.30
21214;DHT22;10764;50.850;2.904;2022-11-20T07:37:51;19.10;52.90
21214;DHT22;10764;50.850;2.904;2022-11-20T07:40:18;18.20;54.10
21214;DHT22;10764;50.850;2.904;2022-11-20T07:42:52;19.80;54.60
21214;DHT22;10764;50.850;2.904;2022-11-20T07:45:20;18.60;53.00
21214;DHT22;10764;50.850;2.904;2022-11-20T07:47:48;20.30;53.50
21214;DHT22;10764;50.850;2.904;2022-11-20T07:50:15;20.20;53.50
21214;DHT22;10764;50.850;2.904;2022-11-20T07:52:42;18.50;52.80
21214;DHT22;10764;50.850;2.904;2022-11-20T07:55:10;21.10;54.60
21214;DHT22;10764;50.850;2.904;2022-11-20T07:57:37;18.60;54.80
21214;DHT22;10764;50.850;2.904;2022-11-20T08:00:05;19.30;54.90
21214;DHT22;10764;50.850;2.904;2022-11-20T08:02:38;18.70;54.00
21214;DHT22;10764;50.850;2.904;2022-11-20T08:05:06;18.60;53.60
21214;DHT22;10764;50.850;2.904;2022-11-20T08:07:38;18.70;54.20
21214;DHT22;10764;50.850;2.904;2022-11-20T08:10:06;19.10;54.40
21214;DHT22;10764;50.850;2.904;2022-11-20T08:12:33;18.60;53.90
21214;DHT22;10764;50.850;2.904;2022-11-20T08:15:36;18.30;54.50
21214;DHT22;10764;50.850;2.904;2022-11-20T08:18:09;18.80;54.50
21214;DHT22;10764;50.850;2.904;2022-11-20T08:21:02;18.70;54.80
21214;DHT22;10764;50.850;2.904;2022-11-20T08:23:29;18.60;54.50
21214;DHT22;10764;50.850;2.904;2022-11-20T08:25:56;19.90;56.60
21214;DHT22;10764;50.850;2.904;2022-11-20T08:28:23;19.10;56.20
21214;DHT22;10764;50.850;2.904;2022-11-20T08:30:50;18.20;56.80
21214;DHT22;10764;50.850;2.904;2022-11-20T08:33:17;20.10;58.40
21214;DHT22;10764;50.850;2.904;2022-11-20T08:35:45;19.60;57.80
21214;DHT22;10764;50.850;2.904;2022-11-20T08:38:11;20.10;57.00
21214;DHT22;10764;50.850;2.904;2022-11-20T08:40:38;18.60;55.10
21214;DHT22;10764;50.850;2.904;2022-11-20T08:43:06;18.70;55.40
21214;DHT22;10764;50.850;2.904;2022-11-20T08:45:33;18.70;55.10
21214;DHT22;10764;50.850;2.904;2022-11-20T08:48:02;19.70;57.30
21214;DHT22;10764;50.850;2.904;2022-11-20T08:50:29;18.70;56.10
21214;DHT22;10764;50.850;2.904;2022-11-20T08:53:03;18.70;55.60
21214;DHT22;10764;50.850;2.904;2022-11-20T08:55:30;19.40;55.90
21214;DHT22;10764;50.850;2.904;2022-11-20T08:57:57;22.00;57.70
21214;DHT22;10764;50.850;2.904;2022-11-20T09:00:24;20.30;56.90
21214;DHT22;10764;50.850;2.904;2022-11-20T09:02:50;20.90;56.70
21214;DHT22;10764;50.850;2.904;2022-11-20T09:05:18;18.70;55.50
21214;DHT22;10764;50.850;2.904;2022-11-20T09:07:45;22.50;57.60
21214;DHT22;10764;50.850;2.904;2022-11-20T09:10:12;18.20;56.00
21214;DHT22;10764;50.850;2.904;2022-11-20T09:12:55;18.70;54.60
21214;DHT22;10764;50.850;2.904;2022-11-20T09:15:23;18.20;55.20
21214;DHT22;10764;50.850;2.904;2022-11-20T09:17:54;18.70;55.30
21214;DHT22;10764;50.850;2.904;2022-11-20T09:20:21;21.90;56.70
21214;DHT22;10764;50.850;2.904;2022-11-20T09:22:48;20.90;57.20
21214;DHT22;10764;50.850;2.904;2022-11-20T09:25:16;18.70;54.40
21214;DHT22;10764;50.850;2.904;2022-11-20T09:27:42;18.70;56.30
21214;DHT22;10764;50.850;2.904;2022-11-20T09:30:15;19.10;56.50
21214;DHT22;10764;50.850;2.904;2022-11-20T09:32:43;18.70;54.90
21214;DHT22;10764;50.850;2.904;2022-11-20T09:35:10;22.40;56.90
21214;DHT22;10764;50.850;2.904;2022-11-20T09:37:38;19.90;57.30
21214;DHT22;10764;50.850;2.904;2022-11-20T09:40:05;19.60;56.80
21214;DHT22;10764;50.850;2.904;2022-11-20T09:51:06;18.80;55.60
21214;DHT22;10764;50.850;2.904;2022-11-20T09:56:23;18.80;54.90
21214;DHT22;10764;50.850;2.904;2022-11-20T09:58:52;18.80;55.20
21214;DHT22;10764;50.850;2.904;2022-11-20T10:01:26;18.80;55.60
21214;DHT22;10764;50.850;2.904;2022-11-20T10:07:04;18.70;55.20
21214;DHT22;10764;50.850;2.904;2022-11-20T10:09:54;19.80;56.20
21214;DHT22;10764;50.850;2.904;2022-11-20T10:12:56;18.70;55.50
21214;DHT22;10764;50.850;2.904;2022-11-20T10:18:21;18.80;55.50
21214;DHT22;10764;50.850;2.904;2022-11-20T10:20:59;19.40;56.30
21214;DHT22;10764;50.850;2.904;2022-11-20T10:23:45;22.10;57.20
21214;DHT22;10764;50.850;2.904;2022-11-20T10:26:48;18.90;56.10
21214;DHT22;10764;50.850;2.904;2022-11-20T10:29:22;18.70;55.60
21214;DHT22;10764;50.850;2.904;2022-11-20T10:32:01;19.00;55.80
21214;DHT22;10764;50.850;2.904;2022-11-20T10:34:31;18.80;56.20
21214;DHT22;10764;50.850;2.904;2022-11-20T10:37:12;20.60;56.70
21214;DHT22;10764;50.850;2.904;2022-11-20T10:39:51;18.80;55.80
21214;DHT22;10764;50.850;2.904;2022-11-20T10:42:31;18.90;56.30
21214;DHT22;10764;50.850;2.904;2022-11-20T10:45:27;19.60;56.50
21214;DHT22;10764;50.850;2.904;2022-11-20T10:54:19;18.80;55.90
21214;DHT22;10764;50.850;2.904;2022-11-20T10:56:45;18.80;55.90
21214;DHT22;10764;50.850;2.904;2022-11-20T10:59:32;19.00;57.00
21214;DHT22;10764;50.850;2.904;2022-11-20T11:02:16;18.80;56.00
21214;DHT22;10764;50.850;2.904;2022-11-20T11:04:46;18.80;56.00
21214;DHT22;10764;50.850;2.904;2022-11-20T11:07:35;18.70;56.30
21214;DHT22;10764;50.850;2.904;2022-11-20T11:12:49;18.80;56.20
21214;DHT22;10764;50.850;2.904;2022-11-20T11:15:27;18.70;56.50
21214;DHT22;10764;50.850;2.904;2022-11-20T11:17:54;21.80;57.70
21214;DHT22;10764;50.850;2.904;2022-11-20T11:20:24;21.10;57.70
21214;DHT22;10764;50.850;2.904;2022-11-20T11:22:53;19.70;56.80
21214;DHT22;10764;50.850;2.904;2022-11-20T11:25:34;19.30;56.70
21214;DHT22;10764;50.850;2.904;2022-11-20T11:30:44;18.40;57.50
21214;DHT22;10764;50.850;2.904;2022-11-20T11:33:18;21.30;59.30
21214;DHT22;10764;50.850;2.904;2022-11-20T11:35:47;22.10;58.00
21214;DHT22;10764;50.850;2.904;2022-11-20T11:38:22;18.80;56.90
21214;DHT22;10764;50.850;2.904;2022-11-20T11:40:53;20.10;57.50
21214;DHT22;10764;50.850;2.904;2022-11-20T11:43:24;19.40;56.80
21214;DHT22;10764;50.850;2.904;2022-11-20T11:46:32;20.50;57.70
21214;DHT22;10764;50.850;2.904;2022-11-20T11:49:00;18.80;56.60
21214;DHT22;10764;50.850;2.904;2022-11-20T11:52:03;18.70;56.90
21214;DHT22;10764;50.850;2.904;2022-11-20T11:54:51;18.70;56.60
21214;DHT22;10764;50.850;2.904;2022-11-20T12:00:08;21.50;58.40
21214;DHT22;10764;50.850;2.904;2022-11-20T12:05:24;18.80;57.30
21214;DHT22;10764;50.850;2.904;2022-11-20T12:10:54;18.90;56.90
21214;DHT22;10764;50.850;2.904;2022-11-20T12:13:39;18.80;57.00
21214;DHT22;10764;50.850;2.904;2022-11-20T12:16:12;18.80;57.00
21214;DHT22;10764;50.850;2.904;2022-11-20T12:18:40;19.60;57.60
21214;DHT22;10764;50.850;2.904;2022-11-20T12:21:25;18.80;57.10
21214;DHT22;10764;50.850;2.904;2022-11-20T12:26:55;18.80;57.00
21214;DHT22;10764;50.850;2.904;2022-11-20T12:37:46;18.80;57.00
21214;DHT22;10764;50.850;2.904;2022-11-20T12:40:28;20.10;58.10
21214;DHT22;10764;50.850;2.904;2022-11-20T12:43:06;22.30;59.50
21214;DHT22;10764;50.850;2.904;2022-11-20T12:46:02;20.20;57.80
21214;DHT22;10764;50.850;2.904;2022-11-20T12:51:24;18.90;57.30
21214;DHT22;10764;50.850;2.904;2022-11-20T12:54:35;18.90;57.40
21214;DHT22;10764;50.850;2.904;2022-11-20T12:57:20;18.80;57.40
21214;DHT22;10764;50.850;2.904;2022-11-20T13:07:53;20.20;58.80
21214;DHT22;10764;50.850;2.904;2022-11-20T13:10:37;19.80;58.30
21214;DHT22;10764;50.850;2.904;2022-11-20T13:13:25;18.80;57.40
21214;DHT22;10764;50.850;2.904;2022-11-20T13:15:57;18.90;57.50
21214;DHT22;10764;50.850;2.904;2022-11-20T13:18:26;18.40;57.70
21214;DHT22;10764;50.850;2.904;2022-11-20T13:20:53;21.20;58.60
21214;DHT22;10764;50.850;2.904;2022-11-20T13:23:25;19.10;59.30
21214;DHT22;10764;50.850;2.904;2022-11-20T13:26:13;18.90;58.00
21214;DHT22;10764;50.850;2.904;2022-11-20T13:28:41;18.90;57.40
21214;DHT22;10764;50.850;2.904;2022-11-20T13:31:29;18.80;57.70
21214;DHT22;10764;50.850;2.904;2022-11-20T13:33:57;18.80;57.30
21214;DHT22;10764;50.850;2.904;2022-11-20T13:36:27;19.80;58.30
21214;DHT22;10764;50.850;2.904;2022-11-20T13:38:55;20.30;58.10
21214;DHT22;10764;50.850;2.904;2022-11-20T13:41:34;20.90;58.60
21214;DHT22;10764;50.850;2.904;2022-11-20T13:44:13;18.90;57.40
21214;DHT22;10764;50.850;2.904;2022-11-20T13:46:42;19.50;57.70
21214;DHT22;10764;50.850;2.904;2022-11-20T13:49:25;18.80;57.40
21214;DHT22;10764;50.850;2.904;2022-11-20T13:52:08;19.00;57.40
21214;DHT22;10764;50.850;2.904;2022-11-20T14:00:27;18.90;57.80
21214;DHT22;10764;50.850;2.904;2022-11-20T14:03:15;21.90;60.10
21214;DHT22;10764;50.850;2.904;2022-11-20T14:05:55;18.90;57.20
21214;DHT22;10764;50.850;2.904;2022-11-20T14:08:38;21.20;58.40
21214;DHT22;10764;50.850;2.904;2022-11-20T14:11:25;18.90;57.20
21214;DHT22;10764;50.850;2.904;2022-11-20T14:14:15;19.00;57.20
21214;DHT22;10764;50.850;2.904;2022-11-20T14:16:42;20.40;58.20
21214;DHT22;10764;50.850;2.904;2022-11-20T14:19:23;20.30;58.10
21214;DHT22;10764;50.850;2.904;2022-11-20T14:22:34;19.00;56.50
21214;DHT22;10764;50.850;2.904;2022-11-20T14:24:42;19.10;57.00
21214;DHT22;10764;50.850;2.904;2022-11-20T14:27:20;19.30;58.90
21214;DHT22;10764;50.850;2.904;2022-11-20T14:29:50;19.00;57.50
21214;DHT22;10764;50.850;2.904;2022-11-20T14:32:18;18.90;58.30
21214;DHT22;10764;50.850;2.904;2022-11-20T14:34:48;19.30;57.10
21214;DHT22;10764;50.850;2.904;2022-11-20T14:37:24;19.30;57.30
21214;DHT22;10764;50.850;2.904;2022-11-20T14:39:55;22.00;58.10
21214;DHT22;10764;50.850;2.904;2022-11-20T14:42:24;19.00;56.30
21214;DHT22;10764;50.850;2.904;2022-11-20T14:44:54;20.40;57.70
21214;DHT22;10764;50.850;2.904;2022-11-20T14:47:25;19.10;56.70
21214;DHT22;10764;50.850;2.904;2022-11-20T14:49:53;19.90;57.10
21214;DHT22;10764;50.850;2.904;2022-11-20T14:52:23;19.10;57.00
21214;DHT22;10764;50.850;2.904;2022-11-20T14:54:55;19.10;56.90
21214;DHT22;10764;50.850;2.904;2022-11-20T14:57:32;18.50;56.40
21214;DHT22;10764;50.850;2.904;2022-11-20T15:00:19;19.20;56.90
21214;DHT22;10764;50.850;2.904;2022-11-20T15:02:51;19.10;56.70
21214;DHT22;10764;50.850;2.904;2022-11-20T15:05:24;21.10;57.20
21214;DHT22;10764;50.850;2.904;2022-11-20T15:08:08;19.10;56.60
21214;DHT22;10764;50.850;2.904;2022-11-20T15:10:35;19.00;56.40
21214;DHT22;10764;50.850;2.904;2022-11-20T15:13:13;21.00;58.80
21214;DHT22;10764;50.850;2.904;2022-11-20T15:15:49;22.40;57.80
21214;DHT22;10764;50.850;2.904;2022-11-20T15:18:21;20.50;56.80
21214;DHT22;10764;50.850;2.904;2022-11-20T15:20:49;18.90;56.40
21214;DHT22;10764;50.850;2.904;2022-11-20T15:23:18;21.90;57.50
21214;DHT22;10764;50.850;2.904;2022-11-20T15:25:46;20.80;57.00
21214;DHT22;10764;50.850;2.904;2022-11-20T15:28:23;18.50;56.30
21214;DHT22;10764;50.850;2.904;2022-11-20T15:30:51;19.90;57.00
21214;DHT22;10764;50.850;2.904;2022-11-20T15:33:19;20.50;58.00
21214;DHT22;10764;50.850;2.904;2022-11-20T15:35:45;18.40;57.20
21214;DHT22;10764;50.850;2.904;2022-11-20T15:38:12;18.90;56.70
21214;DHT22;10764;50.850;2.904;2022-11-20T15:40:39;19.00;57.60
21214;DHT22;10764;50.850;2.904;2022-11-20T15:43:06;18.90;55.30
21214;DHT22;10764;50.850;2.904;2022-11-20T15:45:43;21.80;57.50
21214;DHT22;10764;50.850;2.904;2022-11-20T15:48:14;18.90;55.90
21214;DHT22;10764;50.850;2.904;2022-11-20T15:51:10;19.70;56.50
21214;DHT22;10764;50.850;2.904;2022-11-20T15:53:40;18.90;55.80
21214;DHT22;10764;50.850;2.904;2022-11-20T15:56:14;18.70;55.90
21214;DHT22;10764;50.850;2.904;2022-11-20T15:58:41;20.90;58.50
21214;DHT22;10764;50.850;2.904;2022-11-20T16:01:12;18.30;56.90
21214;DHT22;10764;50.850;2.904;2022-11-20T16:03:39;20.00;56.70
21214;DHT22;10764;50.850;2.904;2022-11-20T16:06:06;20.30;57.20
21214;DHT22;10764;50.850;2.904;2022-11-20T16:08:33;21.60;57.40
21214;DHT22;10764;50.850;2.904;2022-11-20T16:11:00;20.70;56.90
21214;DHT22;10764;50.850;2.904;2022-11-20T16:13:27;20.80;58.40
21214;DHT22;10764;50.850;2.904;2022-11-20T16:16:20;19.80;56.70
21214;DHT22;10764;50.850;2.904;2022-11-20T16:18:48;18.90;56.10
21214;DHT22;10764;50.850;2.904;2022-11-20T16:21:15;20.00;56.50
21214;DHT22;10764;50.850;2.904;2022-11-20T16:23:42;19.70;56.50
21214;DHT22;10764;50.850;2.904;2022-11-20T16:26:13;20.50;56.80
21214;DHT22;10764;50.850;2.904;2022-11-20T16:28:41;19.70;56.00
21214;DHT22;10764;50.850;2.904;2022-11-20T16:31:18;21.10;58.40
21214;DHT22;10764;50.850;2.904;2022-11-20T16:33:49;19.80;56.40
21214;DHT22;10764;50.850;2.904;2022-11-20T16:36:18;18.70;55.50
21214;DHT22;10764;50.850;2.904;2022-11-20T16:38:45;20.20;56.70
21214;DHT22;10764;50.850;2.904;2022-11-20T16:41:12;18.80;57.20
21214;DHT22;10764;50.850;2.904;2022-11-20T16:43:46;18.90;55.60
21214;DHT22;10764;50.850;2.904;2022-11-20T16:46:14;20.20;56.20
21214;DHT22;10764;50.850;2.904;2022-11-20T16:48:41;18.30;55.30
21214;DHT22;10764;50.850;2.904;2022-11-20T16:51:10;18.80;57.20
21214;DHT22;10764;50.850;2.904;2022-11-20T16:53:38;18.50;55.20
21214;DHT22;10764;50.850;2.904;2022-11-20T16:56:13;21.90;56.80
21214;DHT22;10764;50.850;2.904;2022-11-20T16:58:43;18.60;55.20
21214;DHT22;10764;50.850;2.904;2022-11-20T17:01:13;19.20;55.50
21214;DHT22;10764;50.850;2.904;2022-11-20T17:03:42;20.90;56.70
21214;DHT22;10764;50.850;2.904;2022-11-20T17:06:12;18.60;55.60
21214;DHT22;10764;50.850;2.904;2022-11-20T17:08:40;18.70;55.60